createdAt,value
2019-03-19T00:02:31.349Z,3.20
2019-03-19T00:05:05.594Z,3.20
2019-03-19T00:07:42.139Z,3.20
2019-03-19T00:10:15.875Z,3.30
2019-03-19T00:12:49.498Z,3.30
2019-03-19T00:15:23.099Z,3.40
2019-03-19T00:17:56.743Z,3.40
2019-03-19T00:20:30.348Z,3.50
2019-03-19T00:23:04.309Z,3.60
2019-03-19T00:25:37.912Z,3.60
2019-03-19T00:28:11.681Z,3.60
2019-03-19T00:30:45.293Z,3.70
2019-03-19T00:33:18.862Z,3.70
2019-03-19T00:35:52.725Z,3.70
2019-03-19T00:38:26.285Z,3.80
2019-03-19T00:41:00.084Z,3.70
2019-03-19T00:43:33.726Z,3.70
2019-03-19T00:46:07.311Z,3.70
2019-03-19T00:48:40.909Z,3.70
2019-03-19T00:51:14.509Z,3.60
2019-03-19T00:53:48.084Z,3.60
2019-03-19T00:56:21.696Z,3.50
2019-03-19T00:58:55.266Z,3.40
2019-03-19T01:01:28.950Z,3.30
2019-03-19T01:04:02.537Z,3.20
2019-03-19T01:06:36.097Z,3.20
2019-03-19T01:09:09.694Z,3.20
2019-03-19T01:11:43.308Z,3.10
2019-03-19T01:14:16.858Z,3.20
2019-03-19T01:16:50.468Z,3.20
2019-03-19T01:19:24.032Z,3.10
2019-03-19T01:21:57.650Z,3.10
2019-03-19T01:24:31.269Z,3.10
2019-03-19T01:27:04.873Z,3.10
2019-03-19T01:29:38.473Z,3.00
2019-03-19T01:32:12.045Z,3.10
2019-03-19T01:34:45.667Z,3.00
2019-03-19T01:37:19.228Z,3.00
2019-03-19T01:39:52.829Z,3.10
2019-03-19T01:42:26.496Z,3.00
2019-03-19T01:45:00.113Z,3.10
2019-03-19T01:47:34.001Z,3.10
2019-03-19T01:50:12.992Z,3.00
2019-03-19T01:52:47.487Z,3.10
2019-03-19T01:55:21.085Z,3.10
2019-03-19T01:57:54.655Z,3.10
2019-03-19T02:00:28.378Z,3.00
2019-03-19T02:03:01.889Z,3.00
2019-03-19T02:05:35.485Z,2.90
2019-03-19T02:08:08.971Z,2.90
2019-03-19T02:10:42.556Z,3.00
2019-03-19T02:13:16.156Z,3.00
2019-03-19T02:15:50.034Z,3.10
2019-03-19T02:18:23.613Z,3.10
2019-03-19T02:20:57.299Z,3.10
2019-03-19T02:23:30.857Z,3.10
2019-03-19T02:26:15.393Z,3.10
2019-03-19T02:28:39.802Z,3.10
2019-03-19T02:31:13.393Z,3.20
2019-03-19T02:33:46.996Z,3.20
2019-03-19T02:36:20.571Z,3.20
2019-03-19T02:38:54.184Z,3.30
2019-03-19T02:41:28.098Z,3.30
2019-03-19T02:44:01.780Z,3.30
2019-03-19T02:46:35.363Z,3.40
2019-03-19T02:49:08.933Z,3.40
2019-03-19T02:51:42.668Z,3.40
2019-03-19T02:54:16.237Z,3.40
2019-03-19T02:56:49.915Z,3.40
2019-03-19T02:59:23.505Z,3.40
2019-03-19T03:01:57.089Z,3.40
2019-03-19T03:04:30.973Z,3.40
2019-03-19T03:07:04.965Z,3.30
2019-03-19T03:09:38.609Z,3.30
2019-03-19T03:12:12.208Z,3.30
2019-03-19T03:14:46.360Z,3.20
2019-03-19T03:17:20.353Z,3.20
2019-03-19T03:19:53.931Z,3.10
2019-03-19T03:22:27.516Z,3.00
2019-03-19T03:25:01.398Z,3.00
2019-03-19T03:27:35.083Z,2.90
2019-03-19T03:30:22.484Z,2.80
2019-03-19T03:32:56.038Z,2.80
2019-03-19T03:35:29.624Z,2.80
2019-03-19T03:38:03.265Z,2.70
2019-03-19T03:40:37.016Z,2.70
2019-03-19T03:43:10.815Z,2.70
2019-03-19T03:45:44.486Z,2.70
2019-03-19T03:48:18.084Z,2.70
2019-03-19T03:50:51.694Z,2.70
2019-03-19T03:53:25.256Z,2.70
2019-03-19T03:55:58.814Z,2.70
2019-03-19T03:58:32.355Z,2.60
2019-03-19T04:01:06.112Z,2.70
2019-03-19T04:03:39.660Z,2.60
2019-03-19T04:06:13.912Z,2.70
2019-03-19T04:08:47.478Z,2.70
2019-03-19T04:11:21.081Z,2.70
2019-03-19T04:13:54.659Z,2.60
2019-03-19T04:16:28.257Z,2.60
2019-03-19T04:19:01.858Z,2.60
2019-03-19T04:21:35.432Z,2.50
2019-03-19T04:24:09.028Z,2.50
2019-03-19T04:26:43.053Z,2.50
2019-03-19T04:29:16.635Z,2.60
2019-03-19T04:31:50.492Z,2.50
2019-03-19T04:34:24.068Z,2.50
2019-03-19T04:36:57.665Z,2.40
2019-03-19T04:39:31.233Z,2.40
2019-03-19T04:42:04.828Z,2.30
2019-03-19T04:44:38.704Z,2.30
2019-03-19T04:47:12.253Z,2.20
2019-03-19T04:49:45.782Z,2.20
2019-03-19T04:52:19.339Z,2.20
2019-03-19T04:54:52.869Z,2.10
2019-03-19T04:57:27.287Z,2.10
2019-03-19T05:00:00.933Z,2.00
2019-03-19T05:02:34.455Z,2.00
2019-03-19T05:05:10.077Z,1.90
2019-03-19T05:07:43.677Z,1.90
2019-03-19T05:10:18.192Z,1.90
2019-03-19T05:12:51.779Z,1.90
2019-03-19T05:15:25.386Z,1.90
2019-03-19T05:17:59.058Z,2.00
2019-03-19T05:20:32.694Z,2.10
2019-03-19T05:23:06.435Z,2.10
2019-03-19T05:25:40.064Z,2.20
2019-03-19T05:28:13.664Z,2.20
2019-03-19T05:30:47.230Z,3.20
2019-03-19T05:33:20.894Z,2.30
2019-03-19T05:35:57.130Z,2.30
2019-03-19T05:38:30.715Z,2.40
2019-03-19T05:41:04.382Z,2.50
2019-03-19T05:43:38.966Z,2.50
2019-03-19T05:46:12.563Z,2.60
2019-03-19T05:48:46.121Z,2.60
2019-03-19T05:51:19.986Z,2.70
2019-03-19T05:53:53.559Z,2.70
2019-03-19T05:56:27.170Z,2.80
2019-03-19T05:59:00.742Z,2.80
2019-03-19T06:01:34.345Z,2.90
2019-03-19T06:04:08.058Z,2.90
2019-03-19T06:06:41.580Z,2.90
2019-03-19T06:09:15.179Z,3.10
2019-03-19T06:11:49.009Z,3.10
2019-03-19T06:14:22.634Z,3.20
2019-03-19T06:16:56.203Z,3.30
2019-03-19T06:19:29.882Z,3.40
2019-03-19T06:22:03.551Z,3.40
2019-03-19T06:24:37.113Z,3.50
2019-03-19T06:27:10.982Z,3.60
2019-03-19T06:29:44.672Z,3.60
2019-03-19T06:32:18.293Z,3.70
2019-03-19T06:34:52.129Z,3.80
2019-03-19T06:37:25.746Z,3.90
2019-03-19T06:39:59.404Z,4.00
2019-03-19T06:42:32.969Z,4.10
2019-03-19T06:45:10.232Z,4.20
2019-03-19T06:47:43.846Z,4.30
2019-03-19T06:50:24.076Z,4.40
2019-03-19T06:52:57.913Z,4.50
2019-03-19T06:55:31.519Z,4.60
2019-03-19T06:58:10.977Z,4.60
2019-03-19T07:00:40.780Z,4.70
2019-03-19T07:03:14.357Z,4.80
2019-03-19T07:05:48.218Z,4.90
2019-03-19T07:08:21.810Z,4.90
2019-03-19T07:10:55.413Z,5.00
2019-03-19T07:13:28.975Z,5.00
2019-03-19T07:16:02.836Z,5.00
2019-03-19T07:18:36.397Z,5.00
2019-03-19T07:21:10.005Z,5.20
2019-03-19T07:23:43.613Z,5.30
2019-03-19T07:26:17.258Z,5.50
2019-03-19T07:28:50.898Z,5.60
2019-03-19T07:31:30.722Z,6.10
2019-03-19T07:33:59.728Z,6.20
2019-03-19T07:36:33.361Z,6.10
2019-03-19T07:39:07.863Z,6.30
2019-03-19T07:41:41.465Z,6.20
2019-03-19T07:44:15.031Z,6.30
2019-03-19T07:46:48.704Z,6.10
2019-03-19T07:49:22.305Z,6.10
2019-03-19T07:51:55.946Z,6.50
2019-03-19T07:54:29.491Z,6.70
2019-03-19T07:57:03.161Z,6.70
2019-03-19T07:59:36.737Z,6.60
2019-03-19T08:02:10.484Z,7.20
2019-03-19T08:04:44.043Z,7.50
2019-03-19T08:07:17.578Z,7.50
2019-03-19T08:09:51.462Z,7.50
2019-03-19T08:12:25.025Z,7.60
2019-03-19T08:14:58.625Z,7.00
2019-03-19T08:17:32.227Z,7.00
2019-03-19T08:20:08.874Z,8.60
2019-03-19T08:22:42.563Z,7.10
2019-03-19T08:25:16.733Z,7.10
2019-03-19T08:27:50.311Z,7.10
2019-03-19T08:30:25.387Z,7.00
2019-03-19T08:32:59.047Z,7.00
2019-03-19T08:35:32.646Z,6.80
2019-03-19T08:38:06.284Z,7.00
2019-03-19T08:40:39.859Z,7.30
2019-03-19T08:43:13.489Z,7.40
2019-03-19T08:45:47.056Z,7.30
2019-03-19T08:48:20.756Z,7.30
2019-03-19T08:50:54.356Z,7.50
2019-03-19T08:53:27.956Z,7.70
2019-03-19T08:56:01.599Z,7.60
2019-03-19T08:58:35.155Z,7.50
2019-03-19T09:01:08.691Z,7.70
2019-03-19T09:03:42.563Z,8.60
2019-03-19T09:06:16.177Z,8.80
2019-03-19T09:08:50.431Z,8.60
2019-03-19T09:11:24.149Z,9.40
2019-03-19T09:13:57.750Z,8.90
2019-03-19T09:16:31.324Z,9.00
2019-03-19T09:19:05.085Z,8.80
2019-03-19T09:21:39.026Z,8.70
2019-03-19T09:24:12.627Z,8.60
2019-03-19T09:26:46.216Z,8.60
2019-03-19T09:29:20.058Z,8.20
2019-03-19T09:34:26.596Z,8.20
2019-03-19T09:37:00.108Z,8.20
2019-03-19T09:39:33.704Z,8.10
2019-03-19T09:42:07.277Z,8.00
2019-03-19T09:44:40.896Z,8.00
2019-03-19T09:47:14.463Z,7.80
2019-03-19T09:49:48.144Z,7.70
2019-03-19T09:52:21.716Z,7.60
2019-03-19T09:54:55.604Z,7.70
2019-03-19T09:57:29.207Z,7.80
2019-03-19T10:00:03.633Z,8.00
2019-03-19T10:02:37.211Z,8.30
2019-03-19T10:05:11.170Z,8.20
2019-03-19T10:07:44.820Z,8.10
2019-03-19T10:12:55.078Z,8.00
2019-03-19T10:15:28.712Z,8.10
2019-03-19T10:18:02.295Z,8.20
2019-03-19T10:20:35.919Z,8.40
2019-03-19T10:23:09.489Z,8.40
2019-03-19T10:25:43.111Z,8.30
2019-03-19T10:28:16.743Z,8.10
2019-03-19T10:30:50.353Z,8.00
2019-03-19T10:33:23.915Z,7.90
2019-03-19T10:35:57.571Z,8.10
2019-03-19T10:38:31.140Z,8.00
2019-03-19T10:41:04.949Z,8.00
2019-03-19T10:43:38.459Z,8.20
2019-03-19T10:46:12.078Z,8.50
2019-03-19T10:48:45.639Z,8.40
2019-03-19T10:51:19.159Z,8.70
2019-03-19T10:53:52.738Z,9.00
2019-03-19T10:56:26.284Z,9.30
2019-03-19T10:58:59.849Z,9.20
2019-03-19T11:01:33.450Z,9.30
2019-03-19T11:04:07.071Z,9.00
2019-03-19T11:06:40.738Z,8.90
2019-03-19T11:09:14.593Z,8.80
2019-03-19T11:11:48.204Z,8.70
2019-03-19T11:14:21.770Z,8.70
2019-03-19T11:16:55.453Z,8.90
2019-03-19T11:19:29.060Z,8.70
2019-03-19T11:22:02.621Z,8.80
2019-03-19T11:24:36.501Z,8.60
2019-03-19T11:27:10.026Z,8.60
2019-03-19T11:29:43.559Z,8.60
2019-03-19T11:32:17.184Z,8.70
2019-03-19T11:34:50.758Z,8.50
2019-03-19T11:37:24.285Z,9.40
2019-03-19T11:39:58.085Z,9.20
2019-03-19T11:42:31.655Z,8.90
2019-03-19T11:45:08.445Z,8.90
2019-03-19T11:47:42.117Z,9.00
2019-03-19T11:50:26.433Z,8.90
2019-03-19T11:53:00.189Z,8.90
2019-03-19T11:55:33.761Z,9.70
2019-03-19T11:58:07.549Z,9.70
2019-03-19T12:00:42.824Z,9.30
2019-03-19T12:03:16.791Z,9.10
2019-03-19T12:05:50.509Z,9.30
2019-03-19T12:08:24.413Z,9.70
2019-03-19T12:10:58.010Z,9.60
2019-03-19T12:13:31.609Z,9.50
2019-03-19T12:16:05.363Z,9.60
2019-03-19T12:18:38.926Z,9.60
2019-03-19T12:21:13.277Z,10.30
2019-03-19T12:23:46.845Z,10.10
2019-03-19T12:26:20.940Z,9.80
2019-03-19T12:28:55.016Z,10.00
2019-03-19T12:31:28.617Z,10.10
2019-03-19T12:34:02.358Z,10.50
2019-03-19T12:36:36.430Z,9.80
2019-03-19T12:39:10.174Z,9.70
2019-03-19T12:41:43.821Z,9.30
2019-03-19T12:44:17.428Z,9.10
2019-03-19T12:46:51.085Z,9.70
2019-03-19T12:49:24.665Z,9.80
2019-03-19T12:51:58.377Z,9.70
2019-03-19T12:54:32.053Z,10.00
2019-03-19T12:57:05.695Z,10.10
2019-03-19T12:59:39.353Z,9.90
2019-03-19T13:02:12.952Z,9.80
2019-03-19T13:04:46.561Z,9.70
2019-03-19T13:07:20.124Z,9.60
2019-03-19T13:09:53.653Z,9.50
2019-03-19T13:12:27.217Z,9.60
2019-03-19T13:15:00.827Z,9.40
2019-03-19T13:17:34.401Z,9.30
2019-03-19T13:20:10.638Z,9.30
2019-03-19T13:22:44.344Z,9.10
2019-03-19T13:25:24.648Z,9.00
2019-03-19T13:27:58.312Z,9.00
2019-03-19T13:30:32.545Z,9.00
2019-03-19T13:33:06.167Z,8.80
2019-03-19T13:35:39.727Z,8.80
2019-03-19T13:38:13.325Z,8.60
2019-03-19T13:40:46.912Z,8.60
2019-03-19T13:43:20.659Z,8.40
2019-03-19T13:45:54.220Z,8.50
2019-03-19T13:48:27.828Z,8.30
2019-03-19T13:51:01.396Z,8.20
2019-03-19T13:53:35.076Z,8.20
2019-03-19T13:56:08.672Z,8.10
2019-03-19T13:58:42.232Z,8.10
2019-03-19T14:01:16.028Z,8.00
2019-03-19T14:03:49.664Z,7.90
2019-03-19T14:06:23.259Z,8.00
2019-03-19T14:08:56.923Z,7.90
2019-03-19T14:11:30.495Z,8.00
2019-03-19T14:14:04.243Z,8.00
2019-03-19T14:16:37.799Z,8.00
2019-03-19T14:19:11.343Z,7.90
2019-03-19T14:21:44.990Z,7.90
2019-03-19T14:24:18.588Z,8.00
2019-03-19T14:26:52.248Z,8.00
2019-03-19T14:29:25.816Z,8.00
2019-03-19T14:31:59.404Z,7.90
2019-03-19T14:34:32.981Z,7.90
2019-03-19T14:37:06.981Z,7.80
2019-03-19T14:39:40.559Z,7.80
2019-03-19T14:42:15.264Z,7.90
2019-03-19T14:44:48.827Z,7.80
2019-03-19T14:47:22.430Z,7.70
2019-03-19T14:49:56.111Z,7.80
2019-03-19T14:52:29.686Z,7.80
2019-03-19T14:55:03.540Z,7.70
2019-03-19T14:57:37.183Z,7.60
2019-03-19T15:00:13.767Z,7.60
2019-03-19T15:02:47.355Z,7.50
2019-03-19T15:05:21.064Z,7.50
2019-03-19T15:07:54.750Z,7.40
2019-03-19T15:10:28.312Z,7.40
2019-03-19T15:13:01.920Z,7.40
2019-03-19T15:15:35.595Z,7.30
2019-03-19T15:18:09.345Z,7.30
2019-03-19T15:20:42.910Z,7.40
2019-03-19T15:23:16.582Z,7.30
2019-03-19T15:25:50.147Z,7.30
2019-03-19T15:28:23.754Z,7.30
2019-03-19T15:30:57.367Z,7.40
2019-03-19T15:33:30.944Z,7.40
2019-03-19T15:36:04.616Z,7.30
2019-03-19T15:38:38.475Z,7.30
2019-03-19T15:41:11.972Z,7.30
2019-03-19T15:43:45.580Z,7.30
2019-03-19T15:46:19.233Z,7.30
2019-03-19T15:48:52.726Z,7.20
2019-03-19T15:51:26.408Z,7.10
2019-03-19T15:53:59.969Z,7.10
2019-03-19T15:56:33.563Z,7.10
2019-03-19T15:59:07.152Z,7.10
2019-03-19T16:01:41.015Z,7.00
2019-03-19T16:04:14.603Z,7.00
2019-03-19T16:06:48.174Z,6.90
2019-03-19T16:09:25.195Z,6.90
2019-03-19T16:11:58.761Z,6.90
2019-03-19T16:14:32.355Z,6.80
2019-03-19T16:17:05.999Z,6.70
2019-03-19T16:19:39.604Z,6.60
2019-03-19T16:22:13.424Z,6.50
2019-03-19T16:24:47.007Z,6.50
2019-03-19T16:27:20.582Z,6.40
2019-03-19T16:29:54.170Z,6.40
2019-03-19T16:32:27.767Z,6.30
2019-03-19T16:35:01.367Z,6.30
2019-03-19T16:37:34.971Z,6.20
2019-03-19T16:40:22.322Z,6.20
2019-03-19T16:42:55.887Z,6.10
2019-03-19T16:45:29.569Z,6.00
2019-03-19T16:48:03.176Z,5.90
2019-03-19T16:50:36.732Z,5.90
2019-03-19T16:53:10.322Z,5.80
2019-03-19T16:55:43.895Z,5.70
2019-03-19T16:58:17.491Z,5.70
2019-03-19T17:00:51.053Z,5.60
2019-03-19T17:03:24.742Z,5.50
2019-03-19T17:05:58.518Z,5.20
2019-03-19T17:08:32.083Z,5.30
2019-03-19T17:11:05.845Z,5.20
2019-03-19T17:13:39.438Z,5.10
2019-03-19T17:16:13.012Z,4.80
2019-03-19T17:18:46.546Z,4.80
2019-03-19T17:21:20.151Z,4.70
2019-03-19T17:23:53.714Z,4.60
2019-03-19T17:26:27.375Z,4.50
2019-03-19T17:29:00.900Z,4.40
2019-03-19T17:31:34.467Z,4.30
2019-03-19T17:34:07.995Z,4.20
2019-03-19T17:36:41.567Z,4.10
2019-03-19T17:39:15.167Z,4.10
2019-03-19T17:41:48.731Z,4.00
2019-03-19T17:44:22.267Z,4.00
2019-03-19T17:46:55.838Z,4.00
2019-03-19T17:49:29.515Z,4.00
2019-03-19T17:52:03.092Z,3.90
2019-03-19T17:54:36.702Z,3.80
2019-03-19T17:57:10.330Z,3.70
2019-03-19T17:59:43.966Z,3.50
2019-03-19T18:02:23.888Z,3.40
2019-03-19T18:04:52.740Z,3.20
2019-03-19T18:07:26.614Z,3.10
2019-03-19T18:10:00.427Z,3.00
2019-03-19T18:12:34.015Z,2.90
2019-03-19T18:15:12.667Z,2.90
2019-03-19T18:17:46.283Z,2.80
2019-03-19T18:20:19.960Z,2.60
2019-03-19T18:22:53.926Z,2.50
2019-03-19T18:25:27.566Z,2.40
2019-03-19T18:28:01.166Z,2.30
2019-03-19T18:30:34.745Z,2.20
2019-03-19T18:33:08.437Z,2.20
2019-03-19T18:35:41.984Z,2.10
2019-03-19T18:38:15.610Z,2.00
2019-03-19T18:40:49.181Z,1.90
2019-03-19T18:43:22.781Z,1.80
2019-03-19T18:48:31.074Z,1.80
2019-03-19T18:51:04.718Z,1.70
2019-03-19T18:53:38.333Z,1.60
2019-03-19T18:56:11.901Z,1.50
2019-03-19T18:58:45.512Z,1.50
2019-03-19T19:01:19.070Z,1.30
2019-03-19T19:03:52.677Z,1.30
2019-03-19T19:06:26.261Z,1.20
2019-03-19T19:08:59.833Z,1.10
2019-03-19T19:11:37.066Z,1.10
2019-03-19T19:14:10.723Z,1.10
2019-03-19T19:16:44.597Z,1.10
2019-03-19T19:19:18.206Z,1.00
2019-03-19T19:21:51.772Z,0.90
2019-03-19T19:24:25.296Z,0.80
2019-03-19T19:26:58.925Z,0.80
2019-03-19T19:29:32.488Z,0.90
2019-03-19T19:32:06.032Z,0.90
2019-03-19T19:34:39.625Z,0.90
2019-03-19T19:37:13.199Z,0.90
2019-03-19T19:39:46.797Z,0.80
2019-03-19T19:42:20.399Z,0.70
2019-03-19T19:44:54.003Z,0.60
2019-03-19T19:47:27.645Z,0.50
2019-03-19T19:50:01.236Z,0.50
2019-03-19T19:52:34.855Z,0.40
2019-03-19T19:55:10.056Z,0.40
2019-03-19T19:57:43.951Z,0.40
2019-03-19T20:00:21.108Z,0.50
2019-03-19T20:02:54.888Z,0.50
2019-03-19T20:05:28.471Z,0.50
2019-03-19T20:08:02.161Z,0.50
2019-03-19T20:10:35.799Z,0.50
2019-03-19T20:13:09.461Z,0.50
2019-03-19T20:15:43.076Z,0.50
2019-03-19T20:18:16.648Z,0.50
2019-03-19T20:20:50.328Z,0.30
2019-03-19T20:23:23.901Z,0.20
2019-03-19T20:25:57.520Z,0.20
2019-03-19T20:28:31.088Z,0.10
2019-03-19T20:31:04.865Z,0.20
2019-03-19T20:33:38.456Z,0.10
2019-03-19T20:36:12.055Z,0.10
2019-03-19T20:38:45.656Z,0.10
2019-03-19T20:41:19.220Z,0.10
2019-03-19T20:43:52.812Z,0.00
2019-03-19T20:46:26.388Z,0.00
2019-03-19T20:48:59.980Z,0.10
2019-03-19T20:51:33.558Z,0.20
2019-03-19T20:54:07.438Z,0.20
2019-03-19T20:56:40.995Z,0.10
2019-03-19T20:59:15.975Z,0.00
2019-03-19T21:01:49.949Z,-0.10
2019-03-19T21:04:23.615Z,-0.10
2019-03-19T21:06:57.117Z,-0.20
2019-03-19T21:09:30.729Z,-0.20
2019-03-19T21:12:04.468Z,-0.20
2019-03-19T21:14:38.095Z,-0.20
2019-03-19T21:17:11.742Z,-0.20
2019-03-19T21:19:45.343Z,-0.20
2019-03-19T21:22:19.343Z,-0.20
2019-03-19T21:24:52.910Z,-0.20
2019-03-19T21:27:26.835Z,-0.20
2019-03-19T21:30:00.568Z,-0.10
2019-03-19T21:32:34.603Z,-0.10
2019-03-19T21:35:08.244Z,-0.20
2019-03-19T21:37:42.102Z,-0.20
2019-03-19T21:40:15.820Z,-0.10
2019-03-19T21:42:49.478Z,-0.10
2019-03-19T21:45:23.575Z,-0.10
2019-03-19T21:47:57.172Z,-0.10
2019-03-19T21:50:30.857Z,-0.20
2019-03-19T21:53:04.494Z,-0.20
2019-03-19T21:55:38.104Z,-0.20
2019-03-19T21:58:11.664Z,-0.30
2019-03-19T22:00:45.264Z,-0.30
2019-03-19T22:03:18.948Z,-0.40
2019-03-19T22:08:25.276Z,-0.40
2019-03-19T22:10:58.873Z,-0.30
2019-03-19T22:13:32.448Z,-0.30
2019-03-19T22:16:06.037Z,-0.20
2019-03-19T22:18:39.643Z,-0.20
2019-03-19T22:21:13.207Z,-0.20
2019-03-19T22:23:46.735Z,-0.10
2019-03-19T22:26:20.290Z,0.00
2019-03-19T22:28:54.074Z,0.10
2019-03-19T22:31:27.705Z,0.30
2019-03-19T22:34:01.499Z,0.50
2019-03-19T22:36:35.504Z,0.30
2019-03-19T22:39:09.340Z,0.20
2019-03-19T22:41:43.050Z,0.10
2019-03-19T22:44:16.789Z,0.00
2019-03-19T22:46:50.359Z,0.00
2019-03-19T22:49:23.951Z,0.00
2019-03-19T22:51:57.524Z,0.00
2019-03-19T22:54:31.124Z,0.10
2019-03-19T22:57:04.821Z,0.10
2019-03-19T22:59:38.423Z,0.10
2019-03-19T23:02:12.090Z,0.10
2019-03-19T23:04:45.726Z,0.00
2019-03-19T23:07:19.326Z,0.00
2019-03-19T23:09:52.931Z,0.00
2019-03-19T23:12:26.603Z,0.10
2019-03-19T23:15:00.481Z,0.00
2019-03-19T23:17:34.076Z,0.00
2019-03-19T23:20:10.148Z,0.10
2019-03-19T23:22:43.748Z,0.20
2019-03-19T23:25:17.532Z,0.10
2019-03-19T23:27:51.454Z,0.10
2019-03-19T23:30:25.559Z,0.10
2019-03-19T23:32:59.215Z,0.00
2019-03-19T23:35:32.810Z,-0.10
2019-03-19T23:38:06.476Z,-0.20
2019-03-19T23:40:40.046Z,-0.30
2019-03-19T23:43:13.653Z,-0.40
2019-03-19T23:45:47.222Z,-0.30
2019-03-19T23:48:20.767Z,-0.20
2019-03-19T23:50:54.322Z,-0.30
2019-03-19T23:53:27.919Z,-0.30
2019-03-19T23:56:01.566Z,-0.50
2019-03-19T23:58:35.105Z,-0.50
